Time;durP1;ratioP1;P1;durP2;ratioP2;P2;SDS_P1;SDS_P2;PMS_P1;PMS_P2;Temp;Humidity;BMP_temperature;BMP_pressure;BME280_temperature;BME280_humidity;BME280_pressure;Samples;Min_cycle;Max_cycle;Signal;HPM_P1;HPM_P2
2023/03/02 00:00:15;;;;;;;39.63;25.13;;;3.50;61.50;;;;;;5053199;28;20378;-74
2023/03/02 00:02:42;;;;;;;43.50;27.60;;;3.50;61.60;;;;;;5053093;28;20025;-74
2023/03/02 00:05:09;;;;;;;43.78;26.42;;;3.50;61.60;;;;;;5053129;28;20036;-74
2023/03/02 00:07:36;;;;;;;45.80;27.33;;;3.50;61.40;;;;;;5053238;28;20158;-74
2023/03/02 00:10:02;;;;;;;45.08;27.30;;;3.50;61.40;;;;;;5053141;28;20029;-74
2023/03/02 00:12:29;;;;;;;39.67;24.70;;;3.50;61.30;;;;;;5035108;28;20025;-75
2023/03/02 00:14:54;;;;;;;46.33;28.73;;;3.60;61.20;;;;;;5052973;28;20033;-74
2023/03/02 00:17:26;;;;;;;48.30;29.33;;;3.40;61.40;;;;;;5034907;28;20025;-75
2023/03/02 00:19:53;;;;;;;45.60;28.30;;;3.40;61.60;;;;;;5053081;28;20094;-74
2023/03/02 00:22:18;;;;;;;47.05;30.00;;;3.40;61.60;;;;;;5052910;28;20033;-74
2023/03/02 00:24:44;;;;;;;49.40;28.58;;;3.10;62.60;;;;;;5052889;28;20151;-75
2023/03/02 00:27:09;;;;;;;52.15;29.20;;;3.00;62.90;;;;;;5052822;28;20475;-74
2023/03/02 00:29:35;;;;;;;51.42;29.70;;;3.00;63.10;;;;;;5052822;28;20021;-74
2023/03/02 00:32:02;;;;;;;46.55;28.27;;;3.00;63.50;;;;;;5052779;28;20028;-74
2023/03/02 00:34:31;;;;;;;53.60;30.38;;;3.00;63.60;;;;;;5052671;28;20048;-74
2023/03/02 00:36:57;;;;;;;44.58;27.13;;;3.10;63.50;;;;;;5052776;28;20033;-74
2023/03/02 00:39:22;;;;;;;45.17;27.55;;;3.00;63.40;;;;;;5052620;28;20029;-74
2023/03/02 00:41:48;;;;;;;48.90;29.80;;;3.10;63.40;;;;;;5052586;28;20036;-74
2023/03/02 00:44:16;;;;;;;49.25;29.15;;;3.10;63.40;;;;;;5052525;28;20057;-74
2023/03/02 00:46:42;;;;;;;52.33;30.25;;;3.00;63.50;;;;;;5052668;28;20363;-75
2023/03/02 00:49:08;;;;;;;56.05;32.30;;;3.10;63.80;;;;;;5052530;28;20020;-74
2023/03/02 00:51:33;;;;;;;44.85;28.23;;;2.80;64.40;;;;;;5052570;28;20462;-74
2023/03/02 00:54:01;;;;;;;49.30;29.52;;;2.80;64.70;;;;;;5052541;28;20033;-74
2023/03/02 00:56:27;;;;;;;51.88;29.40;;;2.80;64.60;;;;;;5052506;28;20354;-74
2023/03/02 00:58:52;;;;;;;48.15;29.33;;;2.90;64.60;;;;;;5052671;28;20116;-74
2023/03/02 01:01:18;;;;;;;53.00;30.80;;;2.90;64.90;;;;;;5052512;28;20056;-74
2023/03/02 01:03:44;;;;;;;51.00;30.58;;;2.80;65.70;;;;;;5052328;28;20029;-74
2023/03/02 01:06:17;;;;;;;56.55;31.25;;;2.70;65.60;;;;;;5052425;28;20477;-73
2023/03/02 01:08:43;;;;;;;51.50;31.27;;;2.60;65.80;;;;;;5055064;28;20025;-73
2023/03/02 01:11:17;;;;;;;48.22;30.23;;;2.50;66.50;;;;;;5056412;28;20021;-74
2023/03/02 01:13:43;;;;;;;50.53;31.75;;;2.50;66.70;;;;;;5056317;28;20064;-74
2023/03/02 01:16:08;;;;;;;54.25;31.65;;;2.30;67.70;;;;;;5056255;28;20021;-74
2023/03/02 01:18:37;;;;;;;57.60;33.30;;;2.20;68.10;;;;;;5056175;28;20056;-74
2023/03/02 01:21:05;;;;;;;57.00;32.55;;;2.10;68.60;;;;;;5056216;28;20485;-73
2023/03/02 01:23:31;;;;;;;52.70;31.33;;;2.00;69.00;;;;;;5056131;28;20711;-73
2023/03/02 01:25:57;;;;;;;52.67;32.17;;;2.10;69.10;;;;;;5056111;28;20103;-73
2023/03/02 01:28:23;;;;;;;52.08;31.75;;;2.10;68.90;;;;;;5056083;28;20112;-73
2023/03/02 01:30:48;;;;;;;51.35;31.65;;;2.20;68.50;;;;;;5056133;28;20029;-73
2023/03/02 01:33:14;;;;;;;51.33;30.90;;;2.30;68.30;;;;;;5055715;28;20025;-73
2023/03/02 01:35:39;;;;;;;56.30;32.55;;;2.40;67.80;;;;;;5056026;28;20013;-73
2023/03/02 01:38:05;;;;;;;57.13;32.70;;;2.30;67.80;;;;;;5056025;28;20385;-73
2023/03/02 01:40:30;;;;;;;49.17;30.45;;;2.20;68.10;;;;;;5055905;28;20028;-74
2023/03/02 01:43:03;;;;;;;55.88;32.67;;;2.20;68.20;;;;;;5055912;28;20134;-73
2023/03/02 01:45:54;;;;;;;54.75;33.67;;;2.20;68.60;;;;;;5055944;28;20054;-73
2023/03/02 01:48:26;;;;;;;53.72;32.35;;;2.10;69.30;;;;;;5055829;28;20021;-74
2023/03/02 01:50:52;;;;;;;63.83;33.58;;;2.20;69.40;;;;;;5055697;28;20385;-73
2023/03/02 01:53:19;;;;;;;60.80;33.65;;;2.10;69.50;;;;;;5055769;28;20055;-73
2023/03/02 01:55:45;;;;;;;54.75;31.52;;;2.10;69.70;;;;;;5055587;28;20032;-79
2023/03/02 01:58:13;;;;;;;55.67;32.47;;;2.10;69.80;;;;;;5055498;28;20025;-76
2023/03/02 02:00:39;;;;;;;53.38;32.22;;;2.10;70.10;;;;;;5037402;28;20055;-77
2023/03/02 02:03:20;;;;;;;54.05;31.55;;;2.00;70.10;;;;;;5037592;28;20048;-78
2023/03/02 02:06:09;;;;;;;56.78;33.58;;;2.00;70.60;;;;;;5037426;28;20029;-77
2023/03/02 02:08:36;;;;;;;51.70;32.38;;;2.00;70.60;;;;;;5041080;28;20063;-77
2023/03/02 02:11:02;;;;;;;52.97;32.95;;;2.00;70.90;;;;;;5055307;28;20631;-74
2023/03/02 02:13:27;;;;;;;59.78;33.47;;;2.00;70.60;;;;;;5055104;28;20028;-73
2023/03/02 02:15:53;;;;;;;56.42;32.85;;;2.00;70.80;;;;;;5055153;28;20028;-75
2023/03/02 02:18:19;;;;;;;57.00;34.45;;;2.00;70.80;;;;;;5054884;28;20048;-74
2023/03/02 02:20:54;;;;;;;55.50;32.72;;;2.00;70.60;;;;;;5054345;28;20060;-74
2023/03/02 02:23:32;;;;;;;57.30;34.33;;;1.90;71.00;;;;;;5054999;28;20033;-72
2023/03/02 02:26:01;;;;;;;58.38;35.72;;;2.00;70.90;;;;;;5054782;28;20086;-73
2023/03/02 02:28:29;;;;;;;59.65;34.55;;;2.00;70.90;;;;;;5055004;28;20508;-74
2023/03/02 02:31:06;;;;;;;55.55;33.58;;;2.00;71.50;;;;;;5054915;28;20056;-74
2023/03/02 02:33:33;;;;;;;57.55;33.58;;;1.90;71.70;;;;;;5054926;28;20469;-73
2023/03/02 02:36:07;;;;;;;53.10;33.05;;;1.90;71.50;;;;;;5054927;28;20025;-72
2023/03/02 02:38:34;;;;;;;57.08;33.97;;;2.00;71.40;;;;;;5054867;28;20051;-74
2023/03/02 02:41:03;;;;;;;52.10;32.15;;;2.10;71.50;;;;;;5054956;28;20017;-74
2023/03/02 02:43:31;;;;;;;51.63;32.92;;;2.10;71.20;;;;;;5036894;28;20033;-74
2023/03/02 02:45:57;;;;;;;54.08;33.10;;;2.30;71.00;;;;;;5054715;28;20024;-75
2023/03/02 02:48:25;;;;;;;55.38;32.92;;;2.40;70.30;;;;;;5054563;28;20067;-75
2023/03/02 02:50:58;;;;;;;49.80;31.63;;;2.50;69.90;;;;;;5054567;28;20025;-74
2023/03/02 02:53:28;;;;;;;54.85;31.40;;;2.60;69.50;;;;;;5054566;28;20032;-74
2023/03/02 02:55:57;;;;;;;50.05;30.27;;;2.60;69.00;;;;;;5036723;28;20029;-78
2023/03/02 02:58:48;;;;;;;55.67;33.75;;;2.60;68.70;;;;;;5054432;28;20078;-74
2023/03/02 03:01:16;;;;;;;52.75;32.45;;;2.60;68.60;;;;;;5054365;28;20029;-74
2023/03/02 03:03:48;;;;;;;55.97;30.83;;;2.70;68.60;;;;;;5054179;28;20036;-75
2023/03/02 03:06:18;;;;;;;51.28;31.73;;;2.70;68.50;;;;;;5054188;28;20542;-74
2023/03/02 03:08:43;;;;;;;55.35;32.63;;;2.60;68.70;;;;;;5036387;28;20029;-74
2023/03/02 03:11:11;;;;;;;58.65;32.90;;;2.40;69.40;;;;;;5054154;28;20029;-74
2023/03/02 03:13:38;;;;;;;55.55;32.45;;;2.20;70.50;;;;;;5054091;28;20024;-74
2023/03/02 03:16:08;;;;;;;55.78;34.22;;;2.10;71.30;;;;;;5054129;28;20025;-74
2023/03/02 03:18:34;;;;;;;54.78;33.28;;;2.10;72.00;;;;;;5053941;28;20133;-75
2023/03/02 03:20:59;;;;;;;52.97;33.22;;;2.10;71.70;;;;;;5054061;28;20057;-74
2023/03/02 03:23:25;;;;;;;53.75;32.63;;;2.00;71.70;;;;;;5053777;28;20040;-74
2023/03/02 03:25:51;;;;;;;57.28;34.42;;;2.10;71.50;;;;;;5053874;28;20029;-74
2023/03/02 03:28:17;;;;;;;54.13;33.40;;;2.10;71.40;;;;;;5053738;28;20029;-75
2023/03/02 03:30:43;;;;;;;58.85;35.05;;;2.10;71.50;;;;;;5053447;28;20040;-79
2023/03/02 03:33:09;;;;;;;54.10;32.42;;;2.20;71.40;;;;;;5053343;28;20139;-74
2023/03/02 03:35:36;;;;;;;55.05;32.67;;;2.30;71.30;;;;;;5053627;28;20055;-74
2023/03/02 03:38:04;;;;;;;47.80;32.22;;;2.30;70.70;;;;;;5053714;28;20047;-74
2023/03/02 03:40:33;;;;;;;50.28;31.35;;;2.40;70.70;;;;;;5053492;28;20044;-74
2023/03/02 03:43:02;;;;;;;50.03;31.27;;;2.50;70.50;;;;;;5053373;28;20033;-74
2023/03/02 03:45:28;;;;;;;52.85;31.85;;;2.60;70.10;;;;;;5053614;28;20020;-74
2023/03/02 03:47:54;;;;;;;53.78;30.63;;;2.60;69.90;;;;;;5053548;28;20093;-74
2023/03/02 03:50:20;;;;;;;59.20;33.95;;;2.70;69.70;;;;;;5053406;28;20477;-73
2023/03/02 03:52:46;;;;;;;51.35;32.53;;;2.60;69.60;;;;;;5053364;28;20207;-73
2023/03/02 03:55:12;;;;;;;50.17;31.13;;;2.60;69.60;;;;;;5053289;28;20229;-73
2023/03/02 03:57:37;;;;;;;54.00;33.75;;;2.60;69.60;;;;;;5053133;28;20104;-73
2023/03/02 04:00:06;;;;;;;57.10;34.63;;;2.70;69.60;;;;;;5053209;28;20029;-73
2023/03/02 04:02:32;;;;;;;50.85;31.08;;;2.60;69.50;;;;;;5052632;28;20028;-74
2023/03/02 04:05:05;;;;;;;51.67;31.83;;;2.70;69.60;;;;;;5035339;28;20033;-73
2023/03/02 04:07:34;;;;;;;52.90;31.65;;;2.70;69.70;;;;;;5053107;28;20462;-73
2023/03/02 04:10:03;;;;;;;49.42;31.13;;;2.70;69.60;;;;;;5053092;28;20035;-73
2023/03/02 04:12:33;;;;;;;48.83;31.33;;;2.70;69.60;;;;;;5053008;28;20035;-73
2023/03/02 04:14:59;;;;;;;51.83;33.55;;;2.70;69.60;;;;;;5053159;28;20021;-73
2023/03/02 04:17:26;;;;;;;56.30;33.08;;;2.60;69.70;;;;;;5052666;28;20033;-73
2023/03/02 04:19:52;;;;;;;54.88;34.40;;;2.60;70.00;;;;;;5053037;28;20029;-73
2023/03/02 04:22:18;;;;;;;55.47;34.85;;;2.40;70.40;;;;;;5052744;28;20036;-73
2023/03/02 04:24:45;;;;;;;57.72;35.40;;;2.50;70.90;;;;;;5052814;28;20029;-73
2023/03/02 04:27:12;;;;;;;58.13;35.60;;;2.30;71.70;;;;;;5052683;28;20075;-73
2023/03/02 04:29:37;;;;;;;54.30;34.38;;;2.30;72.10;;;;;;5052749;28;20044;-73
2023/03/02 04:32:03;;;;;;;59.97;35.10;;;2.20;72.30;;;;;;5052654;28;20029;-73
2023/03/02 04:34:29;;;;;;;60.17;36.65;;;2.20;72.50;;;;;;5052778;28;20051;-73
2023/03/02 04:36:55;;;;;;;60.58;35.10;;;2.10;72.90;;;;;;5052461;28;20108;-73
2023/03/02 04:39:20;;;;;;;57.22;36.05;;;2.10;73.20;;;;;;5052631;28;20081;-73
2023/03/02 04:41:46;;;;;;;52.60;33.20;;;2.10;73.50;;;;;;5034739;28;20061;-74
2023/03/02 04:44:13;;;;;;;49.47;32.13;;;2.10;73.40;;;;;;5052105;28;20513;-74
2023/03/02 04:46:40;;;;;;;60.50;35.40;;;2.30;73.10;;;;;;5052653;28;20021;-74
2023/03/02 04:49:05;;;;;;;56.03;33.47;;;2.30;72.70;;;;;;5052432;28;20041;-73
2023/03/02 04:51:37;;;;;;;60.53;36.22;;;2.40;72.50;;;;;;5052135;28;20108;-74
2023/03/02 04:54:06;;;;;;;63.67;35.22;;;2.30;72.70;;;;;;5052280;28;20429;-74
2023/03/02 04:56:33;;;;;;;59.30;36.55;;;2.20;72.60;;;;;;5052274;28;20029;-74
2023/03/02 04:58:59;;;;;;;57.70;33.58;;;2.20;72.70;;;;;;5052373;28;20028;-73
2023/03/02 05:01:25;;;;;;;57.80;35.67;;;2.20;72.70;;;;;;5052490;28;20125;-73
2023/03/02 05:03:51;;;;;;;59.15;35.70;;;2.30;72.60;;;;;;5055365;28;20048;-78
2023/03/02 05:06:17;;;;;;;64.88;36.08;;;2.30;72.60;;;;;;5052863;28;20017;-73
2023/03/02 05:08:43;;;;;;;58.65;36.40;;;2.30;72.60;;;;;;5052969;28;20044;-73
2023/03/02 05:11:20;;;;;;;58.40;34.58;;;2.30;72.70;;;;;;5052488;28;20017;-73
2023/03/02 05:13:48;;;;;;;52.83;32.83;;;2.40;72.40;;;;;;5052277;28;20075;-73
2023/03/02 05:16:13;;;;;;;59.33;36.20;;;2.40;72.00;;;;;;5034442;28;20023;-78
2023/03/02 05:18:39;;;;;;;55.95;35.22;;;2.40;71.70;;;;;;5052173;28;20128;-77
2023/03/02 05:21:05;;;;;;;60.97;36.00;;;2.30;72.00;;;;;;5052473;28;20021;-79
2023/03/02 05:23:30;;;;;;;60.70;35.83;;;2.20;72.30;;;;;;5052417;28;20044;-73
2023/03/02 05:25:56;;;;;;;58.08;34.22;;;2.20;72.50;;;;;;5052420;28;20462;-79
2023/03/02 05:28:24;;;;;;;57.65;35.13;;;2.30;72.70;;;;;;5052319;28;20064;-79
2023/03/02 05:30:50;;;;;;;58.35;34.45;;;2.30;72.20;;;;;;5052530;28;20126;-79
2023/03/02 05:33:16;;;;;;;56.13;33.28;;;2.40;72.00;;;;;;5051969;28;20118;-74
2023/03/02 05:35:42;;;;;;;55.50;33.30;;;2.40;72.00;;;;;;5052146;28;20033;-76
2023/03/02 05:38:08;;;;;;;57.83;34.25;;;2.50;71.80;;;;;;5052134;28;20048;-73
2023/03/02 05:40:34;;;;;;;55.88;33.40;;;2.60;71.40;;;;;;5052080;28;20021;-77
2023/03/02 05:43:00;;;;;;;55.67;32.03;;;2.50;71.20;;;;;;5033972;28;20485;-73
2023/03/02 05:45:29;;;;;;;54.13;32.90;;;2.50;71.00;;;;;;5052072;28;20024;-74
2023/03/02 05:47:54;;;;;;;53.15;30.98;;;2.50;70.70;;;;;;5052044;28;20499;-76
2023/03/02 05:50:20;;;;;;;54.13;31.60;;;2.30;71.20;;;;;;5051974;28;20119;-74
2023/03/02 05:52:46;;;;;;;54.15;31.45;;;2.40;71.10;;;;;;5052074;28;20025;-73
2023/03/02 05:55:13;;;;;;;54.28;32.15;;;2.30;71.30;;;;;;5053433;28;20111;-73
2023/03/02 05:57:39;;;;;;;53.67;34.45;;;2.30;71.30;;;;;;5055571;28;20021;-73
2023/03/02 06:00:06;;;;;;;56.38;32.13;;;2.30;71.60;;;;;;5055483;28;20020;-73
2023/03/02 06:02:31;;;;;;;57.00;32.85;;;2.30;71.80;;;;;;5055326;28;20028;-75
2023/03/02 06:04:57;;;;;;;56.55;34.05;;;2.30;72.60;;;;;;5055184;28;20029;-73
2023/03/02 06:07:23;;;;;;;56.10;33.47;;;2.40;71.50;;;;;;5055203;28;20040;-74
2023/03/02 06:09:49;;;;;;;56.00;34.88;;;2.30;71.60;;;;;;5037433;28;20021;-74
2023/03/02 06:12:16;;;;;;;60.75;35.40;;;2.20;71.50;;;;;;5055249;28;20021;-73
2023/03/02 06:14:42;;;;;;;56.58;34.78;;;1.90;73.10;;;;;;5054910;28;20032;-74
2023/03/02 06:17:07;;;;;;;60.85;36.80;;;1.90;73.50;;;;;;5055213;28;20025;-73
2023/03/02 06:19:33;;;;;;;55.70;33.60;;;1.90;73.40;;;;;;5054852;28;20056;-73
2023/03/02 06:21:59;;;;;;;56.72;33.63;;;1.90;73.20;;;;;;5054940;28;20029;-74
2023/03/02 06:24:24;;;;;;;62.50;36.17;;;2.00;72.90;;;;;;5037438;28;20039;-73
2023/03/02 06:26:52;;;;;;;55.75;33.53;;;2.00;72.80;;;;;;5054898;28;20103;-72
2023/03/02 06:29:17;;;;;;;54.88;32.72;;;2.10;72.80;;;;;;5054321;28;20032;-73
2023/03/02 06:31:43;;;;;;;55.85;33.83;;;2.10;72.80;;;;;;5054923;28;20040;-74
2023/03/02 06:34:08;;;;;;;59.85;35.25;;;2.20;72.50;;;;;;5054338;28;20033;-74
2023/03/02 06:36:37;;;;;;;58.40;34.65;;;2.10;72.40;;;;;;5054446;28;20021;-74
2023/03/02 06:39:04;;;;;;;62.13;35.60;;;2.10;72.50;;;;;;5054655;28;20029;-75
2023/03/02 06:41:29;;;;;;;60.70;35.25;;;2.20;72.50;;;;;;5054487;28;20021;-74
2023/03/02 06:43:55;;;;;;;56.97;33.75;;;2.20;72.30;;;;;;5054526;28;20040;-74
2023/03/02 06:46:20;;;;;;;60.95;35.50;;;2.30;72.00;;;;;;5054495;28;20021;-74
2023/03/02 06:48:46;;;;;;;57.95;34.40;;;2.20;71.70;;;;;;5054437;28;20039;-74
2023/03/02 06:51:12;;;;;;;54.28;33.38;;;2.20;72.10;;;;;;5054436;28;20025;-74
2023/03/02 06:53:37;;;;;;;64.13;36.42;;;2.30;72.00;;;;;;5054259;28;20029;-74
2023/03/02 06:56:03;;;;;;;57.63;34.97;;;2.30;71.70;;;;;;5036054;28;20021;-73
2023/03/02 06:58:28;;;;;;;54.80;33.35;;;2.30;71.50;;;;;;5054292;28;20075;-73
2023/03/02 07:00:54;;;;;;;55.65;33.70;;;2.40;71.50;;;;;;5054259;28;20017;-73
2023/03/02 07:03:20;;;;;;;59.53;36.00;;;2.40;71.20;;;;;;5054227;28;20040;-73
2023/03/02 07:05:47;;;;;;;53.70;33.53;;;2.40;71.00;;;;;;5053947;28;20025;-73
2023/03/02 07:08:13;;;;;;;54.50;32.65;;;2.30;71.50;;;;;;5054230;28;20017;-73
2023/03/02 07:10:39;;;;;;;61.28;34.78;;;2.40;71.60;;;;;;5054196;28;20450;-80
2023/03/02 07:13:04;;;;;;;61.95;34.75;;;3.00;89.70;;;;;;5054859;28;20080;-82
2023/03/02 07:15:30;;;;;;;59.28;34.10;;;3.30;87.40;;;;;;5054667;28;20024;-82
2023/03/02 07:17:55;;;;;;;56.13;33.47;;;3.50;80.20;;;;;;5053879;28;20064;-73
2023/03/02 07:20:21;;;;;;;50.30;31.00;;;3.70;76.40;;;;;;5053906;28;20029;-74
2023/03/02 07:22:47;;;;;;;54.72;31.15;;;4.10;73.00;;;;;;5053615;28;20099;-78
2023/03/02 07:25:13;;;;;;;51.80;29.48;;;4.30;70.90;;;;;;5035844;28;20120;-74
2023/03/02 07:27:38;;;;;;;57.05;31.60;;;4.40;69.20;;;;;;5053602;28;20424;-74
2023/03/02 07:30:05;;;;;;;45.05;28.60;;;4.60;68.10;;;;;;5053580;28;20025;-75
2023/03/02 07:32:31;;;;;;;50.90;29.48;;;4.80;68.20;;;;;;5035680;28;20021;-73
2023/03/02 07:34:56;;;;;;;49.70;29.42;;;4.80;66.40;;;;;;5053490;28;20028;-74
2023/03/02 07:37:22;;;;;;;45.83;27.65;;;4.80;66.30;;;;;;5053296;28;20083;-76
2023/03/02 07:39:48;;;;;;;45.45;27.92;;;4.80;66.10;;;;;;5053836;28;20021;-83
2023/03/02 07:42:15;;;;;;;46.08;27.77;;;4.90;65.60;;;;;;5053470;28;20024;-75
2023/03/02 07:44:41;;;;;;;62.20;36.38;;;5.00;65.20;;;;;;5053537;28;20473;-75
2023/03/02 07:47:06;;;;;;;69.22;32.90;;;4.90;63.80;;;;;;5053393;28;20029;-77
2023/03/02 07:49:34;;;;;;;63.00;30.13;;;4.70;62.90;;;;;;5053350;28;20029;-72
2023/03/02 07:52:00;;;;;;;52.95;29.73;;;4.30;64.20;;;;;;5053308;28;20021;-75
2023/03/02 07:54:29;;;;;;;48.97;27.52;;;4.10;65.00;;;;;;5053161;28;20025;-77
2023/03/02 07:56:55;;;;;;;54.60;31.65;;;4.00;65.40;;;;;;5053000;28;20017;-75
2023/03/02 07:59:21;;;;;;;54.42;31.00;;;3.90;66.30;;;;;;5052972;28;20028;-77
2023/03/02 08:01:46;;;;;;;49.45;28.75;;;3.80;66.50;;;;;;5053028;28;20066;-74
2023/03/02 08:04:12;;;;;;;49.95;29.33;;;3.70;66.50;;;;;;5052784;28;20040;-74
2023/03/02 08:06:38;;;;;;;53.38;30.25;;;3.70;66.90;;;;;;5052990;28;20086;-74
2023/03/02 08:09:04;;;;;;;51.60;29.35;;;3.70;67.00;;;;;;5052766;28;20386;-74
2023/03/02 08:11:29;;;;;;;53.80;29.90;;;3.70;67.00;;;;;;5052591;28;20320;-74
2023/03/02 08:13:59;;;;;;;45.13;27.55;;;3.60;67.40;;;;;;5034765;28;20036;-74
2023/03/02 08:16:25;;;;;;;53.63;30.95;;;3.60;68.50;;;;;;5052725;28;20411;-74
2023/03/02 08:18:51;;;;;;;47.53;29.88;;;3.60;68.20;;;;;;5051982;28;20045;-76
2023/03/02 08:21:20;;;;;;;50.90;31.00;;;3.50;68.10;;;;;;5052551;28;20465;-76
2023/03/02 08:23:46;;;;;;;56.28;32.47;;;3.50;68.50;;;;;;5052675;28;20126;-75
2023/03/02 08:26:12;;;;;;;55.13;32.38;;;3.40;68.40;;;;;;5052515;28;20035;-77
2023/03/02 08:28:38;;;;;;;53.35;30.98;;;3.40;68.70;;;;;;5052460;28;20021;-76
2023/03/02 08:31:05;;;;;;;49.55;30.90;;;3.40;68.90;;;;;;5053027;28;20024;-76
2023/03/02 08:33:31;;;;;;;47.78;28.42;;;3.40;69.00;;;;;;5053131;28;20025;-77
2023/03/02 08:36:02;;;;;;;46.55;27.58;;;3.40;69.00;;;;;;5053375;28;20028;-75
2023/03/02 08:38:29;;;;;;;54.47;30.98;;;3.50;69.00;;;;;;5052788;28;20377;-76
2023/03/02 08:40:55;;;;;;;54.22;32.13;;;3.50;68.60;;;;;;5052763;28;20492;-77
2023/03/02 08:43:22;;;;;;;54.95;33.45;;;3.50;69.50;;;;;;5052574;28;20116;-76
2023/03/02 08:45:56;;;;;;;54.50;33.38;;;3.30;69.30;;;;;;5052522;28;20096;-75
2023/03/02 08:48:23;;;;;;;55.00;33.15;;;3.20;69.70;;;;;;5052597;28;20082;-76
2023/03/02 08:50:57;;;;;;;57.25;33.03;;;3.10;70.10;;;;;;5052667;28;20099;-76
2023/03/02 08:53:23;;;;;;;62.58;34.60;;;3.00;70.50;;;;;;5052003;28;20025;-77
2023/03/02 08:55:49;;;;;;;51.75;31.17;;;3.10;70.80;;;;;;5052392;28;20100;-77
2023/03/02 08:58:15;;;;;;;53.65;32.83;;;2.90;70.90;;;;;;5033867;28;20125;-76
2023/03/02 09:00:41;;;;;;;60.58;35.33;;;3.00;70.90;;;;;;5052279;28;20112;-75
2023/03/02 09:03:07;;;;;;;58.20;33.60;;;2.80;71.60;;;;;;5034463;28;20029;-76
2023/03/02 09:05:33;;;;;;;55.05;32.95;;;2.70;72.30;;;;;;5052183;28;20044;-77
2023/03/02 09:07:58;;;;;;;63.90;35.75;;;2.80;72.50;;;;;;5052223;28;20033;-77
2023/03/02 09:10:24;;;;;;;61.95;35.17;;;2.90;72.00;;;;;;5051934;28;20022;-74
2023/03/02 09:12:49;;;;;;;58.55;33.72;;;2.90;71.70;;;;;;5052074;28;20048;-73
2023/03/02 09:15:15;;;;;;;57.08;34.10;;;3.00;71.20;;;;;;5051085;28;20025;-75
2023/03/02 09:17:40;;;;;;;55.72;32.28;;;3.10;70.90;;;;;;5050515;28;20049;-73
2023/03/02 09:20:07;;;;;;;55.67;34.20;;;3.10;71.10;;;;;;5050975;28;20060;-73
2023/03/02 09:22:34;;;;;;;60.45;33.15;;;3.10;70.60;;;;;;5050914;28;20033;-73
2023/03/02 09:25:04;;;;;;;58.00;34.03;;;3.20;70.40;;;;;;5050986;28;20024;-72
2023/03/02 09:27:29;;;;;;;53.92;32.00;;;3.20;70.40;;;;;;5032760;28;20090;-73
2023/03/02 09:29:55;;;;;;;53.33;32.25;;;3.30;70.30;;;;;;5053637;28;20025;-72
2023/03/02 09:32:21;;;;;;;49.22;29.00;;;3.40;69.90;;;;;;5054693;28;20296;-72
2023/03/02 09:34:46;;;;;;;57.40;32.63;;;3.50;69.80;;;;;;5036693;28;20107;-72
2023/03/02 09:37:12;;;;;;;58.40;34.00;;;3.60;69.40;;;;;;5054341;28;20048;-73
2023/03/02 09:39:38;;;;;;;50.85;29.98;;;3.60;69.00;;;;;;5054409;28;20032;-72
2023/03/02 09:42:16;;;;;;;50.72;29.73;;;3.70;69.10;;;;;;5054397;28;20036;-73
2023/03/02 09:44:59;;;;;;;57.42;33.90;;;3.70;69.00;;;;;;5055719;28;20576;-74
2023/03/02 09:48:03;;;;;;;55.75;33.60;;;3.70;68.20;;;;;;5055749;28;20025;-74
2023/03/02 09:50:38;;;;;;;55.17;31.13;;;3.50;68.90;;;;;;4974658;28;20038;-74
2023/03/02 09:53:16;;;;;;;52.33;30.15;;;3.50;69.40;;;;;;4973935;28;20621;-73
2023/03/02 09:55:45;;;;;;;56.05;33.38;;;3.60;69.10;;;;;;5022705;28;20132;-74
2023/03/02 09:58:19;;;;;;;51.90;30.67;;;3.60;68.40;;;;;;5051532;28;20017;-73
2023/03/02 10:00:46;;;;;;;53.57;31.93;;;3.60;69.10;;;;;;5054005;28;20025;-72
2023/03/02 10:03:22;;;;;;;52.17;31.25;;;3.70;69.10;;;;;;5051320;28;20021;-75
2023/03/02 10:05:50;;;;;;;56.20;33.38;;;3.80;68.70;;;;;;5054373;28;20020;-73
2023/03/02 10:08:28;;;;;;;56.65;31.38;;;3.90;68.50;;;;;;5040124;28;20071;-73
2023/03/02 10:11:35;;;;;;;54.28;32.00;;;3.80;68.00;;;;;;5034139;28;20021;-72
2023/03/02 10:14:11;;;;;;;;;;;3.80;68.60;;;;;;5016442;28;20098;-73
2023/03/02 10:16:44;;;;;;;60.03;33.17;;;3.80;68.90;;;;;;5055299;28;19905;-73
2023/03/02 10:19:40;;;;;;;58.60;33.78;;;3.90;68.50;;;;;;5037080;28;20518;-73
2023/03/02 10:22:18;;;;;;;51.90;31.80;;;4.00;68.70;;;;;;5037232;28;20162;-72
2023/03/02 10:25:02;;;;;;;56.65;33.20;;;4.00;68.00;;;;;;5036481;28;20029;-73
2023/03/02 10:27:37;;;;;;;54.22;30.77;;;4.20;67.60;;;;;;5055140;28;20032;-73
2023/03/02 10:30:30;;;;;;;51.88;30.98;;;4.30;67.30;;;;;;5054538;28;20035;-73
2023/03/02 10:33:01;;;;;;;51.25;30.75;;;4.40;66.90;;;;;;5028478;28;20072;-73
2023/03/02 10:35:29;;;;;;;54.67;31.70;;;4.50;66.20;;;;;;5034737;28;20032;-73
2023/03/02 10:38:10;;;;;;;56.05;30.05;;;4.60;65.80;;;;;;5034899;28;20029;-73
2023/03/02 10:40:46;;;;;;;51.28;30.70;;;4.70;65.90;;;;;;5016412;28;20040;-73
2023/03/02 10:43:14;;;;;;;;;;;4.80;65.50;;;;;;5017276;28;20701;-74
2023/03/02 10:45:40;;;;;;;58.85;32.33;;;4.80;64.90;;;;;;5034639;28;19912;-74
2023/03/02 10:48:08;;;;;;;49.38;29.98;;;4.80;65.00;;;;;;5034579;28;20021;-74
2023/03/02 10:50:34;;;;;;;53.05;31.08;;;4.80;65.10;;;;;;5045281;28;20090;-73
2023/03/02 10:53:00;;;;;;;51.53;31.05;;;4.90;65.50;;;;;;5036553;28;20032;-74
2023/03/02 10:55:26;;;;;;;57.75;33.30;;;5.00;65.30;;;;;;5054354;28;20060;-74
2023/03/02 10:58:18;;;;;;;59.63;32.83;;;5.10;65.30;;;;;;5036370;28;20126;-73
2023/03/02 11:00:57;;;;;;;49.05;28.98;;;5.20;64.80;;;;;;5052764;28;20024;-74
2023/03/02 11:03:23;;;;;;;52.03;29.52;;;5.20;64.70;;;;;;5052625;28;20048;-73
2023/03/02 11:05:49;;;;;;;59.15;33.13;;;5.30;64.50;;;;;;5052782;28;20017;-73
2023/03/02 11:08:23;;;;;;;61.17;33.25;;;5.40;64.30;;;;;;5052722;28;20021;-74
2023/03/02 11:10:58;;;;;;;47.63;29.30;;;5.50;64.00;;;;;;5050267;28;20017;-74
2023/03/02 11:13:36;;;;;;;54.58;30.25;;;5.50;63.80;;;;;;5052388;28;20039;-72
2023/03/02 11:16:23;;;;;;;53.55;31.17;;;5.60;63.60;;;;;;5052530;28;20032;-74
2023/03/02 11:18:59;;;;;;;47.90;28.15;;;5.60;63.10;;;;;;5049746;28;20041;-73
2023/03/02 11:21:49;;;;;;;52.45;31.42;;;5.70;63.00;;;;;;5052932;28;20029;-74
2023/03/02 11:24:37;;;;;;;55.50;32.38;;;5.70;62.70;;;;;;5034688;28;20127;-75
2023/03/02 11:27:12;;;;;;;46.90;27.55;;;5.70;62.90;;;;;;5034749;28;20033;-75
2023/03/02 11:29:52;;;;;;;48.92;28.33;;;5.70;63.00;;;;;;5034732;28;20025;-76
2023/03/02 11:32:38;;;;;;;52.75;28.33;;;5.70;62.80;;;;;;5034052;28;20025;-78
2023/03/02 11:35:13;;;;;;;48.85;27.38;;;5.70;62.80;;;;;;5034058;28;20052;-77
2023/03/02 11:37:45;;;;;;;50.13;28.02;;;5.70;62.10;;;;;;5033803;28;20053;-82
2023/03/02 11:40:27;;;;;;;49.63;29.05;;;5.70;62.20;;;;;;5016038;28;20415;-75
2023/03/02 11:42:56;;;;;;;49.40;29.95;;;5.80;62.40;;;;;;5015737;28;20056;-75
2023/03/02 11:45:26;;;;;;;54.03;29.63;;;5.70;62.40;;;;;;5032122;28;20026;-76
2023/03/02 11:47:57;;;;;;;51.00;30.27;;;5.60;62.80;;;;;;5032013;28;20071;-76
2023/03/02 11:50:23;;;;;;;54.22;32.13;;;5.60;62.50;;;;;;5022169;28;20029;-73
2023/03/02 11:52:56;;;;;;;46.45;27.63;;;5.60;62.60;;;;;;5032471;28;20036;-76
2023/03/02 11:55:24;;;;;;;53.50;29.83;;;5.60;62.60;;;;;;5015069;28;20040;-75
2023/03/02 11:57:58;;;;;;;45.35;26.00;;;5.60;62.50;;;;;;5015360;28;20021;-84
2023/03/02 12:00:28;;;;;;;46.65;27.42;;;5.70;62.80;;;;;;5015596;28;20448;-78
2023/03/02 12:02:58;;;;;;;51.53;29.02;;;5.70;62.20;;;;;;5014948;28;20033;-76
2023/03/02 12:05:28;;;;;;;58.17;32.97;;;5.70;61.80;;;;;;5014878;28;20026;-76
2023/03/02 12:08:23;;;;;;;51.97;29.33;;;5.70;62.00;;;;;;5015465;28;20204;-78
2023/03/02 12:10:56;;;;;;;54.40;30.73;;;5.70;62.10;;;;;;5014261;28;20033;-77
2023/03/02 12:13:56;;;;;;;56.20;31.55;;;5.60;62.20;;;;;;5014581;28;20064;-77
2023/03/02 12:16:35;;;;;;;51.67;30.27;;;5.60;62.80;;;;;;5014800;28;20017;-77
2023/03/02 12:19:25;;;;;;;53.72;30.15;;;5.70;62.70;;;;;;5027817;28;20046;-75
2023/03/02 12:22:00;;;;;;;56.80;32.00;;;5.70;62.30;;;;;;5006316;28;20137;-75
2023/03/02 12:24:27;;;;;;;55.92;30.77;;;5.60;62.10;;;;;;4995428;28;20425;-75
2023/03/02 12:27:24;;;;;;;58.58;29.88;;;5.50;62.20;;;;;;5011695;28;20030;-74
2023/03/02 12:30:09;;;;;;;;;;;5.50;63.10;;;;;;5011975;28;20026;-73
2023/03/02 12:32:36;;;;;;;55.55;30.92;;;5.50;62.60;;;;;;5013766;28;19913;-73
2023/03/02 12:35:10;;;;;;;55.20;31.85;;;5.50;62.90;;;;;;5031466;28;20060;-75
2023/03/02 12:37:52;;;;;;;52.80;30.02;;;5.50;63.10;;;;;;5027567;28;20029;-75
2023/03/02 12:40:36;;;;;;;56.05;31.48;;;5.60;62.90;;;;;;5031621;28;20025;-75
2023/03/02 12:43:32;;;;;;;59.35;34.00;;;5.60;63.00;;;;;;5014953;28;20017;-75
2023/03/02 12:46:18;;;;;;;53.90;30.15;;;5.60;62.70;;;;;;5032556;28;20540;-75
2023/03/02 12:49:01;;;;;;;61.15;33.60;;;5.50;63.00;;;;;;5014901;28;20030;-75